Wetterdaten: Woche 25.02.19 - 03.03.19 (KW9)
Datum Zeit Temp. Aussen Temp. o. S. +5cm Feuchte Auss Luftdruck Regen Sonnenschein Regendauer Solar Windben Empfang
25.02.2019 00:00 5,9 C 3,8 C 2,0 C 59 % 1035,6 hPa 0,0 l/m 0,00 h 0,00 h 0 W/m 0,5 km/h (0 Bft) 96,11 %
25.02.2019 01:00 4,6 C 3,5 C 1,4 C 62 % 1035,7 hPa 0,0 l/m 0,00 h 0,00 h 0 W/m 2,0 km/h (1 Bft) 98,15 %
25.02.2019 02:00 4,7 C 4,4 C 1,6 C 61 % 1035,7 hPa 0,0 l/m 0,00 h 0,00 h 0 W/m 2,6 km/h (1 Bft) 97,01 %
25.02.2019 03:00 4,6 C 4,4 C 2,0 C 60 % 1035,5 hPa 0,0 l/m 0,00 h 0,00 h 0 W/m 4,2 km/h (1 Bft) 98,81 %
25.02.2019 04:00 6,1 C 6,2 C 3,9 C 54 % 1035,4 hPa 0,0 l/m 0,00 h 0,00 h 0 W/m 6,1 km/h (2 Bft) 95,16 %
25.02.2019 05:00 5,8 C 4,7 C 2,4 C 55 % 1035,5 hPa 0,0 l/m 0,00 h 0,00 h 0 W/m 5,0 km/h (1 Bft) 99,04 %
25.02.2019 06:00 5,0 C 4,2 C 3,1 C 57 % 1035,4 hPa 0,0 l/m 0,00 h 0,00 h 0 W/m 7,7 km/h (2 Bft) 98,25 %
25.02.2019 07:00 4,5 C 3,9 C 2,8 C 59 % 1035,5 hPa 0,0 l/m 0,00 h 0,00 h 9 W/m 9,6 km/h (2 Bft) 93,19 %
25.02.2019 08:00 4,6 C 4,8 C 3,6 C 60 % 1035,6 hPa 0,0 l/m 0,00 h 0,00 h 21 W/m 9,3 km/h (2 Bft) 98,21 %
25.02.2019 09:00 6,9 C 10,4 C 7,9 C 58 % 1036,0 hPa 0,0 l/m 0,60 h 0,00 h 198 W/m 9,8 km/h (2 Bft) 95,21 %
25.02.2019 10:00 11,1 C 17,8 C 10,7 C 51 % 1036,4 hPa 0,0 l/m 1,00 h 0,00 h 406 W/m 8,1 km/h (2 Bft) 95,03 %
25.02.2019 11:00 13,3 C 18,4 C 12,2 C 43 % 1036,5 hPa 0,0 l/m 1,00 h 0,00 h 507 W/m 12,2 km/h (3 Bft) 96,65 %
25.02.2019 12:00 15,5 C 20,8 C 17,2 C 41 % 1036,0 hPa 0,0 l/m 1,00 h 0,00 h 555 W/m 12,6 km/h (3 Bft) 96,28 %
25.02.2019 13:00 17,1 C 22,6 C 20,3 C 41 % 1035,4 hPa 0,0 l/m 1,00 h 0,00 h 545 W/m 11,5 km/h (2 Bft) 97,79 %
25.02.2019 14:00 18,1 C 22,2 C 17,0 C 41 % 1034,0 hPa 0,0 l/m 1,00 h 0,00 h 490 W/m 16,3 km/h (3 Bft) 92,82 %
25.02.2019 15:00 18,7 C 22,9 C 17,4 C 40 % 1033,7 hPa 0,0 l/m 1,00 h 0,00 h 380 W/m 9,8 km/h (2 Bft) 81,22 %
25.02.2019 16:00 18,9 C 21,4 C 15,1 C 41 % 1033,9 hPa 0,0 l/m 0,80 h 0,00 h 197 W/m 3,4 km/h (1 Bft) 96,07 %
25.02.2019 17:00 16,8 C 14,3 C 10,7 C 48 % 1034,1 hPa 0,0 l/m 0,03 h 0,00 h 21 W/m 1,1 km/h (0 Bft) 97,30 %
25.02.2019 18:00 13,6 C 11,5 C 8,4 C 53 % 1034,3 hPa 0,0 l/m 0,00 h 0,00 h 5 W/m 0,7 km/h (0 Bft) 95,43 %
25.02.2019 19:00 11,9 C 9,4 C 6,8 C 59 % 1034,2 hPa 0,0 l/m 0,00 h 0,00 h 0 W/m 0,4 km/h (0 Bft) 94,44 %
25.02.2019 20:00 9,5 C 7,0 C 4,9 C 66 % 1034,1 hPa 0,0 l/m 0,00 h 0,00 h 0 W/m 0,0 km/h (0 Bft) 90,26 %
25.02.2019 21:00 7,8 C 6,2 C 3,9 C 69 % 1033,9 hPa 0,0 l/m 0,00 h 0,00 h 0 W/m 0,0 km/h (0 Bft) 96,74 %
25.02.2019 22:00 6,6 C 4,9 C 3,0 C 72 % 1033,5 hPa 0,0 l/m 0,00 h 0,00 h 0 W/m 0,0 km/h (0 Bft) 98,40 %
25.02.2019 23:00 5,4 C 4,0 C 2,3 C 76 % 1033,4 hPa 0,0 l/m 0,00 h 0,00 h 0 W/m 0,5 km/h (0 Bft) 99,34 %
26.02.2019 00:00 4,6 C 3,1 C 1,7 C 80 % 1033,5 hPa 0,0 l/m 0,00 h 0,00 h 0 W/m 0,0 km/h (0 Bft) 95,78 %
26.02.2019 01:00 4,9 C 6,0 C 3,4 C 82 % 1033,1 hPa 0,0 l/m 0,00 h 0,00 h 0 W/m 5,1 km/h (1 Bft) 96,72 %
26.02.2019 02:00 6,4 C 5,7 C 4,0 C 77 % 1033,2 hPa 0,0 l/m 0,00 h 0,00 h 0 W/m 6,9 km/h (2 Bft) 99,21 %
26.02.2019 03:00 7,2 C 6,6 C 5,7 C 75 % 1032,6 hPa 0,0 l/m 0,00 h 0,00 h 0 W/m 13,2 km/h (3 Bft) 97,34 %
26.02.2019 04:00 6,5 C 5,5 C 4,4 C 76 % 1032,4 hPa 0,0 l/m 0,00 h 0,00 h 0 W/m 8,1 km/h (2 Bft) 96,74 %
26.02.2019 05:00 5,1 C 2,8 C 1,8 C 77 % 1032,4 hPa 0,0 l/m 0,00 h 0,00 h 0 W/m 0,9 km/h (0 Bft) 98,04 %
26.02.2019 06:00 3,7 C 1,9 C 0,9 C 81 % 1032,6 hPa 0,0 l/m 0,00 h 0,00 h 0 W/m 0,6 km/h (0 Bft) 96,23 %
26.02.2019 07:00 2,5 C 1,0 C 0,0 C 83 % 1033,0 hPa 0,0 l/m 0,00 h 0,00 h 10 W/m 0,0 km/h (0 Bft) 98,34 %
26.02.2019 08:00 2,1 C 2,2 C 0,6 C 86 % 1033,1 hPa 0,0 l/m 0,00 h 0,00 h 26 W/m 0,0 km/h (0 Bft) 97,30 %
26.02.2019 09:00 4,2 C 9,3 C 6,0 C 91 % 1033,0 hPa 0,0 l/m 0,60 h 0,00 h 201 W/m 5,2 km/h (1 Bft) 95,94 %
26.02.2019 10:00 10,2 C 16,0 C 10,7 C 72 % 1032,9 hPa 0,0 l/m 1,00 h 0,00 h 413 W/m 10,2 km/h (2 Bft) 97,80 %
26.02.2019 11:00 13,4 C 20,1 C 11,7 C 64 % 1032,8 hPa 0,0 l/m 1,00 h 0,00 h 509 W/m 7,5 km/h (2 Bft) 94,80 %
26.02.2019 12:00 16,0 C 22,7 C 17,9 C 59 % 1032,7 hPa 0,0 l/m 1,00 h 0,00 h 552 W/m 8,0 km/h (2 Bft) 97,98 %
26.02.2019 13:00 18,8 C 27,5 C 21,9 C 55 % 1032,2 hPa 0,0 l/m 1,00 h 0,00 h 545 W/m 6,1 km/h (2 Bft) 96,38 %
26.02.2019 14:00 19,9 C 26,3 C 17,9 C 47 % 1031,4 hPa 0,0 l/m 1,00 h 0,00 h 481 W/m 6,5 km/h (2 Bft) 97,15 %
26.02.2019 15:00 20,2 C 24,7 C 18,1 C 46 % 1030,7 hPa 0,0 l/m 1,00 h 0,00 h 358 W/m 5,7 km/h (1 Bft) 99,22 %
26.02.2019 16:00 19,4 C 21,1 C 15,7 C 47 % 1030,3 hPa 0,0 l/m 0,73 h 0,00 h 170 W/m 3,6 km/h (1 Bft) 95,66 %
26.02.2019 17:00 17,3 C 15,0 C 10,7 C 52 % 1030,1 hPa 0,0 l/m 0,03 h 0,00 h 23 W/m 0,0 km/h (0 Bft) 97,63 %
26.02.2019 18:00 13,6 C 10,5 C 7,9 C 64 % 1030,0 hPa 0,0 l/m 0,00 h 0,00 h 6 W/m 0,0 km/h (0 Bft) 98,05 %
26.02.2019 19:00 11,0 C 8,8 C 6,2 C 68 % 1030,0 hPa 0,0 l/m 0,00 h 0,00 h 0 W/m 0,0 km/h (0 Bft) 97,30 %
26.02.2019 20:00 9,5 C 8,1 C 5,4 C 72 % 1029,9 hPa 0,0 l/m 0,00 h 0,00 h 0 W/m 0,5 km/h (0 Bft) 97,44 %
26.02.2019 21:00 8,5 C 6,5 C 4,2 C 73 % 1029,5 hPa 0,0 l/m 0,00 h 0,00 h 0 W/m 0,0 km/h (0 Bft) 97,59 %
26.02.2019 22:00 7,1 C 5,2 C 3,3 C 76 % 1029,3 hPa 0,0 l/m 0,00 h 0,00 h 0 W/m 0,0 km/h (0 Bft) 96,37 %
26.02.2019 23:00 5,7 C 4,0 C 2,4 C 79 % 1029,2 hPa 0,0 l/m 0,00 h 0,00 h 0 W/m 0,0 km/h (0 Bft) 96,32 %
27.02.2019 00:00 4,6 C 3,1 C 1,6 C 82 % 1029,0 hPa 0,0 l/m 0,00 h 0,00 h 0 W/m 0,0 km/h (0 Bft) 94,42 %
27.02.2019 01:00 3,6 C 2,2 C 1,1 C 85 % 1028,7 hPa 0,0 l/m 0,00 h 0,00 h 0 W/m 0,0 km/h (0 Bft) 99,00 %
27.02.2019 02:00 3,5 C 3,9 C 1,7 C 89 % 1028,3 hPa 0,0 l/m 0,00 h 0,00 h 0 W/m 2,9 km/h (1 Bft) 97,22 %
27.02.2019 03:00 5,3 C 5,7 C 4,1 C 90 % 1027,6 hPa 0,0 l/m 0,00 h 0,00 h 0 W/m 5,6 km/h (1 Bft) 96,02 %
27.02.2019 04:00 5,9 C 5,6 C 4,4 C 86 % 1026,8 hPa 0,0 l/m 0,00 h 0,00 h 0 W/m 7,0 km/h (2 Bft) 99,72 %
27.02.2019 05:00 5,9 C 5,2 C 4,4 C 84 % 1026,5 hPa 0,0 l/m 0,00 h 0,00 h 0 W/m 9,2 km/h (2 Bft) 97,12 %
27.02.2019 06:00 5,7 C 5,1 C 4,0 C 83 % 1026,3 hPa 0,0 l/m 0,00 h 0,00 h 0 W/m 7,6 km/h (2 Bft) 96,07 %
27.02.2019 07:00 5,5 C 5,0 C 4,1 C 82 % 1026,1 hPa 0,0 l/m 0,00 h 0,00 h 9 W/m 10,8 km/h (2 Bft) 98,51 %
27.02.2019 08:00 5,8 C 5,9 C 4,9 C 80 % 1026,0 hPa 0,0 l/m 0,00 h 0,00 h 22 W/m 11,9 km/h (2 Bft) 95,37 %
27.02.2019 09:00 7,9 C 11,1 C 9,0 C 75 % 1025,9 hPa 0,0 l/m 0,60 h 0,00 h 215 W/m 13,0 km/h (3 Bft) 98,95 %
27.02.2019 10:00 11,5 C 16,6 C 11,3 C 65 % 1025,6 hPa 0,0 l/m 1,00 h 0,00 h 430 W/m 12,3 km/h (3 Bft) 97,45 %
27.02.2019 11:00 13,4 C 20,2 C 12,3 C 60 % 1025,2 hPa 0,0 l/m 1,00 h 0,00 h 527 W/m 9,4 km/h (2 Bft) 99,50 %
27.02.2019 12:00 15,9 C 23,1 C 18,7 C 54 % 1024,4 hPa 0,0 l/m 1,00 h 0,00 h 574 W/m 9,9 km/h (2 Bft) 97,24 %
27.02.2019 13:00 18,7 C 25,2 C 22,1 C 48 % 1023,4 hPa 0,0 l/m 1,00 h 0,00 h 563 W/m 7,4 km/h (2 Bft) 98,16 %
27.02.2019 14:00 19,7 C 25,4 C 18,1 C 45 % 1022,3 hPa 0,0 l/m 1,00 h 0,00 h 500 W/m 8,9 km/h (2 Bft) 98,51 %
27.02.2019 15:00 20,5 C 24,6 C 19,3 C 43 % 1021,3 hPa 0,0 l/m 1,00 h 0,00 h 390 W/m 11,2 km/h (2 Bft) 95,82 %
27.02.2019 16:00 20,1 C 21,4 C 18,9 C 42 % 1020,5 hPa 0,0 l/m 0,87 h 0,00 h 212 W/m 11,0 km/h (2 Bft) 99,18 %
27.02.2019 17:00 18,6 C 17,1 C 14,3 C 47 % 1019,8 hPa 0,0 l/m 0,07 h 0,00 h 25 W/m 6,3 km/h (2 Bft) 95,22 %
27.02.2019 18:00 15,8 C 12,7 C 8,8 C 56 % 1019,2 hPa 0,0 l/m 0,00 h 0,00 h 6 W/m 0,0 km/h (0 Bft) 95,84 %
27.02.2019 19:00 11,8 C 8,7 C 6,7 C 67 % 1018,8 hPa 0,0 l/m 0,00 h 0,00 h 0 W/m 0,0 km/h (0 Bft) 96,65 %
27.02.2019 20:00 9,7 C 7,6 C 5,4 C 71 % 1018,4 hPa 0,0 l/m 0,00 h 0,00 h 0 W/m 0,0 km/h (0 Bft) 98,65 %
27.02.2019 21:00 8,3 C 6,7 C 4,5 C 75 % 1018,1 hPa 0,0 l/m 0,00 h 0,00 h 0 W/m 0,0 km/h (0 Bft) 98,15 %
27.02.2019 22:00 7,6 C 7,2 C 4,1 C 80 % 1017,8 hPa 0,0 l/m 0,00 h 0,00 h 0 W/m 0,2 km/h (0 Bft) 96,72 %
27.02.2019 23:00 7,3 C 6,3 C 3,6 C 81 % 1017,6 hPa 0,0 l/m 0,00 h 0,00 h 0 W/m 0,1 km/h (0 Bft) 97,36 %
28.02.2019 00:00 6,5 C 5,2 C 2,9 C 82 % 1017,3 hPa 0,0 l/m 0,00 h 0,00 h 0 W/m 0,0 km/h (0 Bft) 97,78 %
28.02.2019 01:00 5,6 C 4,1 C 2,2 C 83 % 1017,0 hPa 0,0 l/m 0,00 h 0,00 h 0 W/m 0,0 km/h (0 Bft) 96,61 %
28.02.2019 02:00 4,9 C 4,5 C 2,0 C 86 % 1016,5 hPa 0,0 l/m 0,00 h 0,00 h 0 W/m 1,0 km/h (0 Bft) 98,26 %
28.02.2019 03:00 5,2 C 4,9 C 2,3 C 90 % 1015,7 hPa 0,0 l/m 0,00 h 0,00 h 0 W/m 1,7 km/h (1 Bft) 98,08 %
28.02.2019 04:00 5,3 C 3,9 C 2,0 C 90 % 1015,2 hPa 0,0 l/m 0,00 h 0,00 h 0 W/m 0,3 km/h (0 Bft) 95,94 %
28.02.2019 05:00 4,9 C 4,5 C 2,2 C 91 % 1014,9 hPa 0,0 l/m 0,00 h 0,00 h 0 W/m 1,3 km/h (1 Bft) 98,74 %
28.02.2019 06:00 5,0 C 4,4 C 2,3 C 92 % 1014,7 hPa 0,0 l/m 0,00 h 0,00 h 0 W/m 0,8 km/h (0 Bft) 98,80 %
28.02.2019 07:00 4,7 C 3,9 C 1,9 C 93 % 1014,6 hPa 0,0 l/m 0,00 h 0,00 h 12 W/m 0,6 km/h (0 Bft) 95,19 %
28.02.2019 08:00 5,1 C 6,1 C 4,6 C 94 % 1014,4 hPa 0,0 l/m 0,00 h 0,00 h 52 W/m 3,4 km/h (1 Bft) 98,19 %
28.02.2019 09:00 7,8 C 11,8 C 9,2 C 92 % 1014,4 hPa 0,0 l/m 0,60 h 0,00 h 222 W/m 9,4 km/h (2 Bft) 96,40 %
28.02.2019 10:00 11,4 C 14,9 C 11,3 C 76 % 1014,1 hPa 0,0 l/m 0,90 h 0,00 h 326 W/m 10,2 km/h (2 Bft) 86,83 %
28.02.2019 11:00 12,5 C 13,6 C 11,8 C 73 % 1014,3 hPa 0,0 l/m 0,57 h 0,00 h 260 W/m 12,0 km/h (2 Bft) 91,31 %
28.02.2019 12:00 13,0 C 16,4 C 14,2 C 75 % 1014,2 hPa 0,0 l/m 1,00 h 0,00 h 421 W/m 14,0 km/h (3 Bft) 82,91 %
28.02.2019 13:00 14,6 C 17,9 C 15,5 C 70 % 1013,9 hPa 0,0 l/m 0,97 h 0,00 h 458 W/m 18,5 km/h (3 Bft) 98,06 %
28.02.2019 14:00 13,0 C 12,2 C 11,7 C 77 % 1014,1 hPa 0,0 l/m 0,20 h 0,00 h 155 W/m 25,5 km/h (4 Bft) 95,67 %
28.02.2019 15:00 11,6 C 12,3 C 11,4 C 82 % 1014,1 hPa 0,0 l/m 0,60 h 0,00 h 183 W/m 16,7 km/h (3 Bft) 98,72 %
28.02.2019 16:00 12,3 C 12,3 C 11,6 C 80 % 1013,7 hPa 0,0 l/m 0,27 h 0,03 h 108 W/m 15,8 km/h (3 Bft) 96,64 %
28.02.2019 17:00 11,9 C 11,3 C 10,7 C 81 % 1013,3 hPa 0,0 l/m 0,00 h 0,00 h 24 W/m 13,7 km/h (3 Bft) 96,35 %
28.02.2019 18:00 11,5 C 10,7 C 10,1 C 83 % 1013,1 hPa 0,0 l/m 0,00 h 0,00 h 0 W/m 13,4 km/h (3 Bft) 98,88 %
28.02.2019 19:00 10,9 C 10,1 C 9,5 C 85 % 1013,0 hPa 0,0 l/m 0,00 h 0,00 h 0 W/m 13,9 km/h (3 Bft) 96,87 %
28.02.2019 20:00 10,4 C 9,4 C 8,8 C 88 % 1012,4 hPa 0,0 l/m 0,00 h 0,13 h 0 W/m 13,1 km/h (3 Bft) 95,15 %
28.02.2019 21:00 10,0 C 8,7 C 8,3 C 90 % 1012,1 hPa 0,4 l/m 0,00 h 0,33 h 0 W/m 12,0 km/h (2 Bft) 99,16 %
28.02.2019 22:00 9,5 C 8,1 C 7,8 C 93 % 1011,8 hPa 0,0 l/m 0,00 h 0,27 h 0 W/m 8,9 km/h (2 Bft) 97,65 %
28.02.2019 23:00 9,3 C 8,3 C 7,8 C 94 % 1011,3 hPa 0,2 l/m 0,00 h 0,20 h 0 W/m 13,5 km/h (3 Bft) 95,73 %
01.03.2019 00:00 9,0 C 7,8 C 7,2 C 95 % 1010,8 hPa 0,4 l/m 0,00 h 0,27 h 0 W/m 11,4 km/h (2 Bft) 98,74 %
01.03.2019 01:00 8,8 C 7,8 C 7,2 C 95 % 1010,2 hPa 0,0 l/m 0,00 h 0,07 h 0 W/m 9,5 km/h (2 Bft) 97,15 %
01.03.2019 02:00 8,8 C 7,8 C 7,2 C 95 % 1009,6 hPa 0,4 l/m 0,00 h 0,77 h 0 W/m 7,8 km/h (2 Bft) 97,73 %
01.03.2019 03:00 8,6 C 7,4 C 7,1 C 96 % 1009,2 hPa 0,2 l/m 0,00 h 0,57 h 0 W/m 7,4 km/h (2 Bft) 96,94 %
01.03.2019 04:00 8,4 C 7,2 C 6,9 C 96 % 1008,9 hPa 0,0 l/m 0,00 h 0,13 h 0 W/m 2,4 km/h (1 Bft) 96,47 %
01.03.2019 05:00 8,4 C 7,2 C 7,0 C 96 % 1008,8 hPa 0,0 l/m 0,00 h 0,00 h 0 W/m 3,0 km/h (1 Bft) 99,47 %
01.03.2019 06:00 8,3 C 7,2 C 7,2 C 97 % 1008,9 hPa 0,0 l/m 0,00 h 0,00 h 0 W/m 2,8 km/h (1 Bft) 97,15 %
01.03.2019 07:00 8,2 C 7,2 C 6,8 C 97 % 1009,4 hPa 0,0 l/m 0,00 h 0,00 h 6 W/m 6,4 km/h (2 Bft) 95,55 %
01.03.2019 08:00 8,0 C 7,1 C 6,6 C 97 % 1010,1 hPa 0,0 l/m 0,00 h 0,00 h 11 W/m 8,4 km/h (2 Bft) 99,22 %
01.03.2019 09:00 7,3 C 6,5 C 6,1 C 97 % 1011,0 hPa 0,0 l/m 0,00 h 0,00 h 14 W/m 13,6 km/h (3 Bft) 97,51 %
01.03.2019 10:00 7,1 C 6,5 C 6,0 C 97 % 1011,8 hPa 0,0 l/m 0,00 h 0,00 h 27 W/m 11,4 km/h (2 Bft) 95,37 %
01.03.2019 11:00 7,1 C 6,7 C 6,2 C 97 % 1012,6 hPa 0,0 l/m 0,00 h 0,00 h 44 W/m 11,8 km/h (2 Bft) 97,94 %
01.03.2019 12:00 7,3 C 6,8 C 6,4 C 97 % 1013,1 hPa 0,0 l/m 0,00 h 0,37 h 45 W/m 10,9 km/h (2 Bft) 97,41 %
01.03.2019 13:00 7,0 C 6,1 C 5,7 C 97 % 1013,7 hPa 0,2 l/m 0,00 h 0,17 h 24 W/m 22,0 km/h (4 Bft) 96,86 %
01.03.2019 14:00 6,0 C 5,6 C 5,0 C 97 % 1014,4 hPa 0,0 l/m 0,00 h 0,00 h 47 W/m 18,1 km/h (3 Bft) 96,65 %
01.03.2019 15:00 5,9 C 5,6 C 5,0 C 97 % 1014,7 hPa 0,0 l/m 0,00 h 0,00 h 33 W/m 13,5 km/h (3 Bft) 98,63 %
01.03.2019 16:00 6,1 C 6,1 C 5,0 C 97 % 1015,0 hPa 0,0 l/m 0,00 h 0,00 h 25 W/m 10,8 km/h (2 Bft) 98,12 %
01.03.2019 17:00 6,0 C 5,6 C 4,6 C 94 % 1015,6 hPa 0,0 l/m 0,00 h 0,00 h 6 W/m 13,5 km/h (3 Bft) 95,23 %
01.03.2019 18:00 5,8 C 5,1 C 4,2 C 92 % 1016,1 hPa 0,0 l/m 0,00 h 0,00 h 0 W/m 11,9 km/h (2 Bft) 98,82 %
01.03.2019 19:00 5,6 C 5,0 C 3,9 C 91 % 1016,6 hPa 0,0 l/m 0,00 h 0,00 h 0 W/m 7,3 km/h (2 Bft) 97,37 %
01.03.2019 20:00 5,4 C 5,0 C 4,3 C 91 % 1016,8 hPa 0,0 l/m 0,00 h 0,00 h 0 W/m 7,4 km/h (2 Bft) 96,95 %
01.03.2019 21:00 5,3 C 5,0 C 4,4 C 89 % 1016,8 hPa 0,0 l/m 0,00 h 0,00 h 0 W/m 5,9 km/h (2 Bft) 97,36 %
01.03.2019 22:00 5,5 C 5,0 C 4,4 C 88 % 1016,7 hPa 0,0 l/m 0,00 h 0,00 h 0 W/m 4,2 km/h (1 Bft) 97,06 %
01.03.2019 23:00 5,6 C 5,0 C 4,4 C 88 % 1016,8 hPa 0,0 l/m 0,00 h 0,00 h 0 W/m 6,9 km/h (2 Bft) 98,26 %
02.03.2019 00:00 5,7 C 5,0 C 4,4 C 90 % 1016,7 hPa 0,0 l/m 0,00 h 0,00 h 0 W/m 7,1 km/h (2 Bft) 95,99 %
02.03.2019 01:00 5,6 C 5,0 C 4,4 C 92 % 1016,4 hPa 0,0 l/m 0,00 h 0,00 h 0 W/m 5,6 km/h (1 Bft) 96,51 %
02.03.2019 02:00 5,5 C 5,0 C 4,4 C 93 % 1016,0 hPa 0,0 l/m 0,00 h 0,00 h 0 W/m 3,2 km/h (1 Bft) 99,22 %
02.03.2019 03:00 5,4 C 5,0 C 4,4 C 93 % 1015,3 hPa 0,0 l/m 0,00 h 0,00 h 0 W/m 4,4 km/h (1 Bft) 97,30 %
02.03.2019 04:00 5,5 C 5,0 C 4,4 C 94 % 1014,8 hPa 0,0 l/m 0,00 h 0,00 h 0 W/m 5,2 km/h (1 Bft) 96,03 %
02.03.2019 05:00 5,5 C 4,8 C 4,3 C 94 % 1014,5 hPa 0,0 l/m 0,00 h 0,00 h 0 W/m 6,1 km/h (2 Bft) 98,90 %
02.03.2019 06:00 5,6 C 5,0 C 4,4 C 96 % 1014,1 hPa 0,0 l/m 0,00 h 0,00 h 0 W/m 5,9 km/h (2 Bft) 96,96 %
02.03.2019 07:00 5,6 C 5,0 C 4,4 C 96 % 1013,7 hPa 0,0 l/m 0,00 h 0,00 h 11 W/m 8,8 km/h (2 Bft) 97,29 %
02.03.2019 08:00 5,7 C 5,6 C 5,0 C 97 % 1013,5 hPa 0,0 l/m 0,00 h 0,00 h 27 W/m 11,0 km/h (2 Bft) 98,22 %
02.03.2019 09:00 6,1 C 6,0 C 5,6 C 97 % 1013,5 hPa 0,0 l/m 0,00 h 0,00 h 36 W/m 11,2 km/h (2 Bft) 96,57 %
02.03.2019 10:00 6,7 C 7,5 C 7,0 C 97 % 1013,3 hPa 0,0 l/m 0,00 h 0,00 h 132 W/m 12,0 km/h (2 Bft) 98,51 %
02.03.2019 11:00 8,0 C 9,2 C 8,9 C 94 % 1012,9 hPa 0,0 l/m 0,17 h 0,00 h 210 W/m 14,8 km/h (3 Bft) 97,51 %
02.03.2019 12:00 9,8 C 11,5 C 10,9 C 86 % 1012,2 hPa 0,0 l/m 0,63 h 0,00 h 290 W/m 18,7 km/h (3 Bft) 97,29 %
02.03.2019 13:00 11,4 C 13,2 C 12,6 C 78 % 1011,5 hPa 0,0 l/m 0,57 h 0,00 h 306 W/m 20,0 km/h (4 Bft) 96,94 %
02.03.2019 14:00 11,3 C 11,0 C 10,6 C 76 % 1010,9 hPa 0,0 l/m 0,00 h 0,00 h 83 W/m 19,5 km/h (3 Bft) 98,72 %
02.03.2019 15:00 11,0 C 10,4 C 9,9 C 81 % 1010,5 hPa 0,0 l/m 0,00 h 0,00 h 89 W/m 19,4 km/h (3 Bft) 98,29 %
02.03.2019 16:00 10,2 C 9,0 C 8,7 C 87 % 1010,2 hPa 0,0 l/m 0,00 h 0,07 h 34 W/m 13,8 km/h (3 Bft) 94,66 %
02.03.2019 17:00 9,6 C 8,0 C 7,7 C 92 % 1010,0 hPa 0,4 l/m 0,00 h 0,60 h 12 W/m 15,0 km/h (3 Bft) 98,72 %
02.03.2019 18:00 9,1 C 7,8 C 7,4 C 95 % 1010,1 hPa 0,4 l/m 0,00 h 0,53 h 0 W/m 18,0 km/h (3 Bft) 98,67 %
02.03.2019 19:00 9,0 C 8,0 C 7,8 C 97 % 1010,2 hPa 0,2 l/m 0,00 h 0,00 h 0 W/m 17,7 km/h (3 Bft) 96,51 %
02.03.2019 20:00 9,3 C 8,3 C 7,8 C 97 % 1010,4 hPa 0,0 l/m 0,00 h 0,00 h 0 W/m 15,7 km/h (3 Bft) 98,20 %
02.03.2019 21:00 9,4 C 8,4 C 8,0 C 96 % 1010,3 hPa 0,0 l/m 0,00 h 0,00 h 0 W/m 16,3 km/h (3 Bft) 97,65 %
02.03.2019 22:00 9,3 C 8,0 C 7,6 C 92 % 1010,2 hPa 0,0 l/m 0,00 h 0,00 h 0 W/m 17,6 km/h (3 Bft) 97,43 %
02.03.2019 23:00 9,4 C 8,2 C 8,1 C 90 % 1009,7 hPa 0,0 l/m 0,00 h 0,00 h 0 W/m 21,1 km/h (4 Bft) 97,79 %
03.03.2019 00:00 9,3 C 8,6 C 7,9 C 89 % 1009,3 hPa 0,0 l/m 0,00 h 0,00 h 0 W/m 21,4 km/h (4 Bft) 92,52 %
03.03.2019 01:00 9,2 C 8,7 C 8,0 C 86 % 1009,0 hPa 0,0 l/m 0,00 h 0,00 h 0 W/m 21,3 km/h (4 Bft) 98,65 %
03.03.2019 02:00 9,6 C 9,2 C 8,6 C 85 % 1008,5 hPa 0,0 l/m 0,00 h 0,00 h 0 W/m 25,5 km/h (4 Bft) 97,51 %
03.03.2019 03:00 9,7 C 9,2 C 8,6 C 84 % 1007,8 hPa 0,0 l/m 0,00 h 0,00 h 0 W/m 28,9 km/h (5 Bft) 96,01 %
03.03.2019 04:00 9,7 C 8,8 C 8,1 C 85 % 1007,2 hPa 0,0 l/m 0,00 h 0,43 h 0 W/m 22,8 km/h (4 Bft) 99,08 %
03.03.2019 05:00 9,5 C 8,4 C 7,4 C 87 % 1006,6 hPa 0,0 l/m 0,00 h 0,85 h 0 W/m 24,9 km/h (4 Bft) 97,42 %
03.03.2019 06:00 9,7 C 8,7 C 7,8 C 87 % 1006,1 hPa 0,2 l/m 0,00 h 0,63 h 0 W/m 27,5 km/h (4 Bft) 95,65 %
03.03.2019 07:00 9,9 C 9,1 C 8,6 C 87 % 1005,9 hPa 0,0 l/m 0,00 h 0,57 h 5 W/m 31,1 km/h (5 Bft) 98,68 %
03.03.2019 08:00 10,1 C 9,6 C 9,0 C 88 % 1005,9 hPa 0,0 l/m 0,00 h 0,00 h 23 W/m 32,1 km/h (5 Bft) 97,77 %
03.03.2019 09:00 10,0 C 8,6 C 8,1 C 90 % 1006,0 hPa 0,4 l/m 0,00 h 0,80 h 32 W/m 32,7 km/h (5 Bft) 96,56 %
03.03.2019 10:00 9,9 C 8,5 C 8,3 C 93 % 1005,8 hPa 0,2 l/m 0,00 h 1,00 h 48 W/m 32,3 km/h (5 Bft) 97,08 %
03.03.2019 11:00 10,2 C 9,0 C 8,5 C 94 % 1005,7 hPa 0,4 l/m 0,00 h 1,00 h 80 W/m 32,0 km/h (5 Bft) 99,07 %
03.03.2019 12:00 10,7 C 9,7 C 9,2 C 93 % 1005,3 hPa 0,0 l/m 0,00 h 0,87 h 99 W/m 31,2 km/h (5 Bft) 97,38 %
03.03.2019 13:00 11,3 C 10,1 C 9,4 C 90 % 1004,8 hPa 0,0 l/m 0,00 h 0,50 h 61 W/m 29,7 km/h (5 Bft) 95,51 %
03.03.2019 14:00 11,4 C 10,8 C 9,4 C 89 % 1004,2 hPa 0,0 l/m 0,00 h 0,43 h 35 W/m 37,9 km/h (5 Bft) 98,56 %
03.03.2019 15:00 11,6 C 11,2 C 10,6 C 88 % 1003,5 hPa 0,0 l/m 0,00 h 0,00 h 54 W/m 32,9 km/h (5 Bft) 97,07 %
03.03.2019 16:00 11,8 C 11,5 C 10,7 C 86 % 1002,6 hPa 0,0 l/m 0,00 h 0,00 h 34 W/m 29,8 km/h (5 Bft) 95,61 %
03.03.2019 17:00 12,0 C 11,7 C 11,1 C 84 % 1001,5 hPa 0,0 l/m 0,00 h 0,00 h 17 W/m 32,3 km/h (5 Bft) 99,71 %
03.03.2019 18:00 12,2 C 11,7 C 11,1 C 82 % 1000,8 hPa 0,0 l/m 0,00 h 0,00 h 5 W/m 29,2 km/h (5 Bft) 96,73 %
03.03.2019 19:00 12,3 C 11,7 C 11,1 C 80 % 1000,1 hPa 0,0 l/m 0,00 h 0,00 h 0 W/m 28,3 km/h (4 Bft) 96,40 %
03.03.2019 20:00 12,3 C 11,6 C 11,0 C 80 % 999,1 hPa 0,0 l/m 0,00 h 0,13 h 0 W/m 27,6 km/h (4 Bft) 98,40 %
03.03.2019 21:00 12,5 C 12,0 C 11,4 C 81 % 998,4 hPa 0,0 l/m 0,00 h 0,00 h 0 W/m 32,0 km/h (5 Bft) 98,64 %
03.03.2019 22:00 12,9 C 12,2 C 11,7 C 80 % 997,7 hPa 0,0 l/m 0,00 h 0,10 h 0 W/m 33,6 km/h (5 Bft) 95,51 %
03.03.2019 23:00 12,9 C 12,2 C 11,7 C 79 % 996,0 hPa 0,0 l/m 0,00 h 0,00 h 0 W/m 28,6 km/h (4 Bft) 97,65 %
Min-Datum _ 26.02.19 26.02.19 26.02.19 25.02.19 03.03.19 - - - - 25.02.19 27.02.19
_ Min-Zeit 08:18 06:56 06:52 15:42 23:56 - - - - 00:00 00:02
Minimum _ 2,0 C 0,6 C 0,0 C 38 % 995,2 hPa - - - - 0,0 km/h (0 Bft) 15,38 %
Max-Datum _ 27.02.19 26.02.19 27.02.19 01.03.19 25.02.19 28.02.19 28.02.19 03.03.19 27.02.19 03.03.19 25.02.19
_ Max-Zeit 15:06 13:46 13:10 12:36 10:18 21:42 13:05 05:10 12:46 14:26 01:08
Maximum _ 20,6 C 28,9 C 27,2 C 98 % 1036,5 hPa 0,4 l/m 0,08 h 0,08 h 579 W/m 57,9 km/h
S-SO (7 Bft)
100,00 %
Durchschnitt _ 9,3 C 9,4 C 7,7 C 79 % 1019,1 hPa #4,0 l/m #28:48 h #11:49 h 177 W/m 10,9 km/h (2 Bft) 96,90 %
© 2019 W. Hausmann